createdAt,value
2017-07-01T12:35:58.307Z,1.10
2017-07-01T12:38:27.810Z,1.27
2017-07-01T12:40:57.367Z,1.30
2017-07-01T12:43:26.854Z,1.50
2017-07-01T12:45:56.342Z,1.35
2017-07-01T12:48:25.949Z,1.33
2017-07-01T12:50:55.446Z,1.10
2017-07-01T12:53:24.987Z,1.45
2017-07-01T12:55:54.542Z,1.15
2017-07-01T12:58:24.048Z,1.05
2017-07-01T13:00:53.529Z,1.30
2017-07-01T13:03:23.038Z,1.00
2017-07-01T13:05:52.514Z,1.30
2017-07-01T13:08:22.036Z,1.08
2017-07-01T13:10:51.526Z,1.30
2017-07-01T13:13:21.060Z,0.90
2017-07-01T13:15:50.551Z,1.10
2017-07-01T13:18:20.070Z,1.00
2017-07-01T13:20:49.563Z,1.10
2017-07-01T13:23:19.234Z,1.23
2017-07-01T13:25:49.349Z,1.20
2017-07-01T13:28:18.843Z,1.08
2017-07-01T13:30:48.349Z,1.00
2017-07-01T13:33:17.888Z,1.12
2017-07-01T13:35:47.396Z,1.12
2017-07-01T13:38:16.887Z,0.90
2017-07-01T13:40:46.386Z,1.00
2017-07-01T13:43:15.937Z,1.12
2017-07-01T13:45:45.433Z,0.98
2017-07-01T13:48:14.960Z,1.10
2017-07-01T13:50:44.465Z,1.00
2017-07-01T13:53:14.039Z,1.30
2017-07-01T13:55:43.514Z,1.35
2017-07-01T13:58:13.075Z,1.20
2017-07-01T14:00:42.584Z,1.25
2017-07-01T14:03:12.109Z,1.13
2017-07-01T14:05:41.604Z,1.17
2017-07-01T14:08:11.116Z,1.47
2017-07-01T14:10:41.649Z,1.70
2017-07-01T14:13:11.126Z,1.40
2017-07-01T14:15:40.649Z,1.10
2017-07-01T14:18:10.143Z,1.23
2017-07-01T14:20:39.651Z,1.40
2017-07-01T14:23:09.134Z,1.57
2017-07-01T14:25:38.732Z,1.20
2017-07-01T14:28:08.228Z,1.50
2017-07-01T14:30:37.925Z,1.27
2017-07-01T14:33:07.559Z,1.20
2017-07-01T14:35:37.065Z,1.40
2017-07-01T14:38:06.550Z,1.43
2017-07-01T14:40:36.045Z,1.13
2017-07-01T14:43:05.562Z,1.40
2017-07-01T14:45:35.090Z,1.50
2017-07-01T14:48:04.593Z,1.43
2017-07-01T14:50:34.110Z,1.37
2017-07-01T14:53:03.622Z,1.50
2017-07-01T14:55:33.166Z,1.70
2017-07-01T14:58:02.714Z,1.37
2017-07-01T15:00:32.238Z,1.80
2017-07-01T15:03:01.753Z,1.80
2017-07-01T15:05:31.274Z,1.70
2017-07-01T15:08:00.816Z,1.20
2017-07-01T15:10:30.312Z,2.37
2017-07-01T15:12:59.767Z,1.50
2017-07-01T15:15:29.282Z,1.30
2017-07-01T15:17:58.786Z,1.43
2017-07-01T15:20:28.321Z,1.57
2017-07-01T15:22:57.934Z,1.40
2017-07-01T15:25:27.441Z,1.50
2017-07-01T15:27:56.945Z,1.50
2017-07-01T15:30:26.458Z,1.60
2017-07-01T15:32:55.992Z,1.27
2017-07-01T15:35:25.505Z,1.60
2017-07-01T15:37:55.028Z,1.30
2017-07-01T15:40:24.798Z,1.23
2017-07-01T15:42:54.296Z,1.00
2017-07-01T15:45:23.794Z,1.20
2017-07-01T15:47:53.289Z,1.23
2017-07-01T15:50:22.884Z,1.30
2017-07-01T15:52:53.107Z,1.20
2017-07-01T15:55:22.654Z,1.30
2017-07-01T15:57:52.178Z,1.30
2017-07-01T16:00:27.593Z,1.27
2017-07-01T16:02:57.129Z,1.20
2017-07-01T16:05:26.753Z,1.50
2017-07-01T16:07:56.257Z,1.07
2017-07-01T16:10:25.768Z,1.10
2017-07-01T16:12:55.275Z,1.40
2017-07-01T16:15:24.790Z,1.40
2017-07-01T16:17:54.315Z,1.80
2017-07-01T16:20:23.799Z,1.60
2017-07-01T16:22:53.357Z,1.67
2017-07-01T16:25:23.485Z,1.93
2017-07-01T16:27:53.035Z,2.23
2017-07-01T16:30:22.527Z,1.70
2017-07-01T16:32:52.010Z,2.17
2017-07-01T16:35:21.539Z,1.87
2017-07-01T16:37:51.010Z,1.77
2017-07-01T16:40:20.525Z,1.80
2017-07-01T16:42:50.023Z,1.52
2017-07-01T16:45:19.540Z,1.40
2017-07-01T16:47:49.115Z,1.47
2017-07-01T16:50:18.576Z,1.60
2017-07-01T16:52:48.078Z,1.23
2017-07-01T16:55:17.551Z,1.50
2017-07-01T16:57:47.071Z,1.85
2017-07-01T17:00:16.607Z,1.60
2017-07-01T17:02:46.318Z,1.70
2017-07-01T17:05:15.817Z,1.50
2017-07-01T17:07:45.383Z,1.60
2017-07-01T17:10:14.854Z,1.40
2017-07-01T17:12:44.394Z,1.73
2017-07-01T17:15:14.046Z,1.53
2017-07-01T17:17:43.572Z,1.50
2017-07-01T17:20:13.064Z,1.52
2017-07-01T17:22:42.976Z,1.80
2017-07-01T17:25:12.465Z,2.00
2017-07-01T17:27:42.017Z,1.83
2017-07-01T17:30:11.591Z,1.60
2017-07-01T17:32:41.121Z,1.60
2017-07-01T17:35:10.594Z,1.77
2017-07-01T17:37:40.126Z,2.10
2017-07-01T17:40:09.594Z,1.97
2017-07-01T17:42:39.123Z,2.03
2017-07-01T17:45:08.684Z,2.00
2017-07-01T17:47:38.201Z,1.67
2017-07-01T17:50:07.767Z,1.80
2017-07-01T17:52:37.322Z,1.70
2017-07-01T17:55:06.803Z,1.90
2017-07-01T17:57:36.336Z,1.80
2017-07-01T18:00:05.818Z,1.92
2017-07-01T18:02:35.346Z,1.62
2017-07-01T18:05:04.842Z,1.58
2017-07-01T18:07:34.419Z,1.40
2017-07-01T18:10:03.954Z,1.90
2017-07-01T18:12:33.446Z,2.35
2017-07-01T18:15:03.098Z,2.50
2017-07-01T18:17:32.590Z,2.30
